Buoy 46563

sailwx.info

Track history (hours):
 
Tides and Currents Weather Stations Pressure Air Temp Water Temp Dewpoint Dewpoint Depression Visibility Wind Speed Wind Dir Waves Ship Positions

Drifting buoy 46563

Last reported at 2014-Jul-31 06:00 UTC. Time now 2014-Jul-31 09:29 UTC.
Position N 23°53' W 125°35'.

Water temperature 23.1 ° C

Date/timePositionNaut miles runAvg speedWind from/ knotsBaromVisibWave heightAir tempDewpointWater temp
2014-Jul-31 06:00N 23°53' W 125°35'1 0.7 23.1
2014-Jul-31 05:00N 23°53' W 125°36'1 0.7 23.1
2014-Jul-31 04:00N 23°53' W 125°35'1 0.4 23.1
2014-Jul-31 01:00N 23°54' W 125°36'1 0.9 23.1
2014-Jul-31 00:00N 23°54' W 125°37'0 0.1 23.1
2014-Jul-30 23:00N 23°54' W 125°37'1 0.6 23.1
2014-Jul-30 22:00N 23°54' W 125°38'0 0.1 23.1
2014-Jul-30 18:00N 23°54' W 125°37'1 0.5 23.0
2014-Jul-30 17:00N 23°54' W 125°38'0 0.1 23.0
2014-Jul-30 13:00N 23°54' W 125°38'0 0.1 23.0
2014-Jul-30 10:00N 23°54' W 125°38'2 0.3 23.0
2014-Jul-30 05:00N 23°56' W 125°39'1 0.2 23.1
2014-Jul-30 01:00N 23°56' W 125°39'1 0.7 23.1
2014-Jul-30 00:00N 23°56' W 125°40'0 0.1 23.1
2014-Jul-29 22:00N 23°56' W 125°40'0 0.1 23.1
2014-Jul-29 19:00N 23°56' W 125°40'1 0.2 23.0
2014-Jul-29 15:00N 23°57' W 125°40'1 0.7 23.0
2014-Jul-29 13:00N 23°58' W 125°41'0 0.0 23.0
2014-Jul-29 12:00N 23°58' W 125°41'2 2.3 23.1
2014-Jul-29 11:00N 23°59' W 125°43'0 0.0 23.1
2014-Jul-29 07:00N 23°59' W 125°43'1 0.6 23.1
2014-Jul-29 06:00N 23°59' W 125°44'0 0.0 23.1
2014-Jul-29 05:00N 23°59' W 125°44'0 0.1 23.1
2014-Jul-29 04:00N 23°59' W 125°44'0 0.1 23.1
2014-Jul-29 03:00N 23°59' W 125°44'1 0.8 23.1
2014-Jul-29 02:00N 23°58' W 125°44'0 0.2 23.2
2014-Jul-28 23:00N 23°58' W 125°44'0 0.1 23.2
2014-Jul-28 22:00N 23°58' W 125°44'2 0.9 23.2
2014-Jul-28 20:00N 23°59' W 125°45'0 0.0 23.1
2014-Jul-28 18:00N 23°59' W 125°45'1 0.2 23.0
2014-Jul-28 14:00N 23°59' W 125°46'1 0.6 23.0
2014-Jul-28 13:00N 23°60' W 125°46'0 0.4 23.0
2014-Jul-28 12:00N 24°00' W 125°46'0 0.1 23.1
2014-Jul-28 11:00N 24°00' W 125°46'2 1.1 23.1
2014-Jul-28 09:00N 24°02' W 125°48'0 0.0 23.1
2014-Jul-28 05:00N 24°02' W 125°48'1 0.8 23.1
2014-Jul-28 04:00N 24°01' W 125°49'0 0.0 23.1
2014-Jul-28 03:00N 24°01' W 125°49'0 0.1 23.1
2014-Jul-28 01:00N 24°01' W 125°49'0 0.5 23.2
2014-Jul-28 00:00N 24°02' W 125°49'0 0.3 23.2
2014-Jul-27 23:00N 24°02' W 125°49'1 0.3 23.2
2014-Jul-27 21:00N 24°02' W 125°49'0 0.0 23.1
2014-Jul-27 18:00N 24°02' W 125°49'1 0.8 23.1
2014-Jul-27 17:00N 24°03' W 125°49'0 0.1 23.1
2014-Jul-27 14:00N 24°03' W 125°49'1 0.6 23.1
2014-Jul-27 13:00N 24°04' W 125°49'1 0.7 23.1
2014-Jul-27 12:00N 24°04' W 125°49'0 0.0 23.1
2014-Jul-27 11:00N 24°04' W 125°49'2 1.2 23.1
2014-Jul-27 09:00N 24°06' W 125°50'2 1.6 23.1
2014-Jul-27 08:00N 24°05' W 125°50'2 0.8 23.1
2014-Jul-27 06:00N 24°06' W 125°50'1 0.3 23.2
2014-Jul-27 04:00N 24°07' W 125°51'0 0.3 23.2
2014-Jul-27 03:00N 24°07' W 125°51'1 0.4 23.2
2014-Jul-27 01:00N 24°07' W 125°52'1 0.5 23.2
2014-Jul-27 00:00N 24°08' W 125°52'1 0.3 23.3
2014-Jul-26 22:00N 24°08' W 125°52'0 0.0 23.2
2014-Jul-26 21:00N 24°08' W 125°52'1 0.3 23.2
2014-Jul-26 17:00N 24°09' W 125°53'0 0.0 23.2
2014-Jul-26 16:00N 24°09' W 125°53'1 0.4 23.2
2014-Jul-26 14:00N 24°10' W 125°54'0 0.0 23.2
2014-Jul-26 13:00N 24°10' W 125°54'0 0.3 23.2
2014-Jul-26 12:00N 24°10' W 125°53'0 0.4 23.2
2014-Jul-26 11:00N 24°10' W 125°53'1 0.3 23.2
2014-Jul-26 09:00N 24°11' W 125°53'0 0.0 23.2
2014-Jul-26 08:00N 24°11' W 125°53'1 0.7 23.2
2014-Jul-26 06:00N 24°12' W 125°53'3 0.5 23.2
2014-Jul-26 01:00N 24°15' W 125°53'1 0.4 23.3
2014-Jul-25 23:00N 24°15' W 125°54'0 0.0 23.3
2014-Jul-25 22:00N 24°15' W 125°54'0 0.0 23.3
2014-Jul-25 21:00N 24°15' W 125°54'1 0.3 23.2
2014-Jul-25 19:00N 24°16' W 125°54'0 0.1 23.1
2014-Jul-25 18:00N 24°16' W 125°54'0 0.2 23.1
2014-Jul-25 17:00N 24°16' W 125°54'0 0.1 23.1
2014-Jul-25 14:00N 24°16' W 125°54'0 0.2 23.1
2014-Jul-25 13:00N 24°16' W 125°54'0 0.2 23.1
2014-Jul-25 12:00N 24°16' W 125°54'2 0.9 23.1
2014-Jul-25 10:00N 24°17' W 125°52'1 0.1 23.1
2014-Jul-25 05:00N 24°17' W 125°52'1 0.4 23.2
2014-Jul-25 02:00N 24°19' W 125°52'1 0.4 23.3
2014-Jul-25 00:00N 24°19' W 125°52'0 0.1 23.4
2014-Jul-24 21:00N 24°20' W 125°52'1 0.2 23.3
2014-Jul-24 14:00N 24°21' W 125°52'0 0.0 23.3
2014-Jul-24 13:00N 24°21' W 125°52'1 1.0 23.3
2014-Jul-24 12:00N 24°20' W 125°51'1 0.3 23.3
2014-Jul-24 10:00N 24°20' W 125°52'0 0.0 23.3
2014-Jul-24 09:00N 24°20' W 125°52'2 0.6 23.4
2014-Jul-24 06:00N 24°20' W 125°50'1 0.7 23.4
2014-Jul-24 05:00N 24°20' W 125°50'0 0.0 23.4
2014-Jul-24 03:00N 24°20' W 125°50'1 0.6 23.4
2014-Jul-24 02:00N 24°20' W 125°49'1 0.3 23.5
2014-Jul-24 00:00N 24°21' W 125°49'1 0.8 23.6
2014-Jul-23 23:00N 24°21' W 125°49'1 0.3 23.5
2014-Jul-23 21:00N 24°21' W 125°48'0 0.1 23.5
2014-Jul-23 13:00N 24°21' W 125°48'0 0.0 23.3
2014-Jul-23 12:00N 24°21' W 125°48'1 0.5 23.4
2014-Jul-23 10:00N 24°22' W 125°47'1 0.2 23.4
2014-Jul-23 05:00N 24°23' W 125°48'0 0.0 23.4
2014-Jul-23 04:00N 24°23' W 125°48'2 0.3 23.5
2014-Jul-22 23:00N 24°23' W 125°50'1 1.0 24.0
2014-Jul-22 22:00N 24°23' W 125°49'0 0.0 24.0
2014-Jul-22 21:00N 24°23' W 125°49'0 0.0 23.9
2014-Jul-22 18:00N 24°23' W 125°49'0 0.2 23.5
2014-Jul-22 17:00N 24°23' W 125°48'1 0.2 23.4
2014-Jul-22 13:00N 24°23' W 125°48'1 0.7 23.4
2014-Jul-22 11:00N 24°24' W 125°47'0 0.0 23.4
2014-Jul-22 09:00N 24°24' W 125°47'2 0.4 23.4
2014-Jul-22 05:00N 24°26' W 125°48'2 1.5 23.7
2014-Jul-22 04:00N 24°26' W 125°50'0 0.0 23.8
2014-Jul-22 02:00N 24°26' W 125°50'1 0.8 23.8
2014-Jul-22 01:00N 24°26' W 125°51'0 0.1 23.7
2014-Jul-21 22:00N 24°26' W 125°51'0 0.1 24.5
2014-Jul-21 18:00N 24°26' W 125°51'0 0.0 23.4
2014-Jul-21 17:00N 24°26' W 125°51'1 0.2 23.1
2014-Jul-21 12:00N 24°27' W 125°51'1 0.4 22.9
2014-Jul-21 10:00N 24°28' W 125°51'0 0.0 23.0
2014-Jul-21 09:00N 24°28' W 125°51'   23.1
Track history (hours):
 
Tides and Currents Weather Stations Pressure Air Temp Water Temp Dewpoint Dewpoint Depression Visibility Wind Speed Wind Dir Waves Ship Positions

Drifting buoy 46563

Last reported at 2014-Jul-31 06:00 UTC. Time now 2014-Jul-31 09:29 UTC.
Position N 23°53' W 125°35'.

Water temperature 23.1 ° C

Date/timePositionNaut miles runAvg speedWind from/ knotsBaromVisibWave heightAir tempDewpointWater temp
2014-Jul-31 06:00N 23°53' W 125°35'1 0.7 23.1
2014-Jul-31 05:00N 23°53' W 125°36'1 0.7 23.1
2014-Jul-31 04:00N 23°53' W 125°35'1 0.4 23.1
2014-Jul-31 01:00N 23°54' W 125°36'1 0.9 23.1
2014-Jul-31 00:00N 23°54' W 125°37'0 0.1 23.1
2014-Jul-30 23:00N 23°54' W 125°37'1 0.6 23.1
2014-Jul-30 22:00N 23°54' W 125°38'0 0.1 23.1
2014-Jul-30 18:00N 23°54' W 125°37'1 0.5 23.0
2014-Jul-30 17:00N 23°54' W 125°38'0 0.1 23.0
2014-Jul-30 13:00N 23°54' W 125°38'0 0.1 23.0
2014-Jul-30 10:00N 23°54' W 125°38'2 0.3 23.0
2014-Jul-30 05:00N 23°56' W 125°39'1 0.2 23.1
2014-Jul-30 01:00N 23°56' W 125°39'1 0.7 23.1
2014-Jul-30 00:00N 23°56' W 125°40'0 0.1 23.1
2014-Jul-29 22:00N 23°56' W 125°40'0 0.1 23.1
2014-Jul-29 19:00N 23°56' W 125°40'1 0.2 23.0
2014-Jul-29 15:00N 23°57' W 125°40'1 0.7 23.0
2014-Jul-29 13:00N 23°58' W 125°41'0 0.0 23.0
2014-Jul-29 12:00N 23°58' W 125°41'2 2.3 23.1
2014-Jul-29 11:00N 23°59' W 125°43'0 0.0 23.1
2014-Jul-29 07:00N 23°59' W 125°43'1 0.6 23.1
2014-Jul-29 06:00N 23°59' W 125°44'0 0.0 23.1
2014-Jul-29 05:00N 23°59' W 125°44'0 0.1 23.1
2014-Jul-29 04:00N 23°59' W 125°44'0 0.1 23.1
2014-Jul-29 03:00N 23°59' W 125°44'1 0.8 23.1
2014-Jul-29 02:00N 23°58' W 125°44'0 0.2 23.2
2014-Jul-28 23:00N 23°58' W 125°44'0 0.1 23.2
2014-Jul-28 22:00N 23°58' W 125°44'2 0.9 23.2
2014-Jul-28 20:00N 23°59' W 125°45'0 0.0 23.1
2014-Jul-28 18:00N 23°59' W 125°45'1 0.2 23.0
2014-Jul-28 14:00N 23°59' W 125°46'1 0.6 23.0
2014-Jul-28 13:00N 23°60' W 125°46'0 0.4 23.0
2014-Jul-28 12:00N 24°00' W 125°46'0 0.1 23.1
2014-Jul-28 11:00N 24°00' W 125°46'2 1.1 23.1
2014-Jul-28 09:00N 24°02' W 125°48'0 0.0 23.1
2014-Jul-28 05:00N 24°02' W 125°48'1 0.8 23.1
2014-Jul-28 04:00N 24°01' W 125°49'0 0.0 23.1
2014-Jul-28 03:00N 24°01' W 125°49'0 0.1 23.1
2014-Jul-28 01:00N 24°01' W 125°49'0 0.5 23.2
2014-Jul-28 00:00N 24°02' W 125°49'0 0.3 23.2
2014-Jul-27 23:00N 24°02' W 125°49'1 0.3 23.2
2014-Jul-27 21:00N 24°02' W 125°49'0 0.0 23.1
2014-Jul-27 18:00N 24°02' W 125°49'1 0.8 23.1
2014-Jul-27 17:00N 24°03' W 125°49'0 0.1 23.1
2014-Jul-27 14:00N 24°03' W 125°49'1 0.6 23.1
2014-Jul-27 13:00N 24°04' W 125°49'1 0.7 23.1
2014-Jul-27 12:00N 24°04' W 125°49'0 0.0 23.1
2014-Jul-27 11:00N 24°04' W 125°49'2 1.2 23.1
2014-Jul-27 09:00N 24°06' W 125°50'2 1.6 23.1
2014-Jul-27 08:00N 24°05' W 125°50'2 0.8 23.1
2014-Jul-27 06:00N 24°06' W 125°50'1 0.3 23.2
2014-Jul-27 04:00N 24°07' W 125°51'0 0.3 23.2
2014-Jul-27 03:00N 24°07' W 125°51'1 0.4 23.2
2014-Jul-27 01:00N 24°07' W 125°52'1 0.5 23.2
2014-Jul-27 00:00N 24°08' W 125°52'1 0.3 23.3
2014-Jul-26 22:00N 24°08' W 125°52'0 0.0 23.2
2014-Jul-26 21:00N 24°08' W 125°52'1 0.3 23.2
2014-Jul-26 17:00N 24°09' W 125°53'0 0.0 23.2
2014-Jul-26 16:00N 24°09' W 125°53'1 0.4 23.2
2014-Jul-26 14:00N 24°10' W 125°54'0 0.0 23.2
2014-Jul-26 13:00N 24°10' W 125°54'0 0.3 23.2
2014-Jul-26 12:00N 24°10' W 125°53'0 0.4 23.2
2014-Jul-26 11:00N 24°10' W 125°53'1 0.3 23.2
2014-Jul-26 09:00N 24°11' W 125°53'0 0.0 23.2
2014-Jul-26 08:00N 24°11' W 125°53'1 0.7 23.2
2014-Jul-26 06:00N 24°12' W 125°53'3 0.5 23.2
2014-Jul-26 01:00N 24°15' W 125°53'1 0.4 23.3
2014-Jul-25 23:00N 24°15' W 125°54'0 0.0 23.3
2014-Jul-25 22:00N 24°15' W 125°54'0 0.0 23.3
2014-Jul-25 21:00N 24°15' W 125°54'1 0.3 23.2
2014-Jul-25 19:00N 24°16' W 125°54'0 0.1 23.1
2014-Jul-25 18:00N 24°16' W 125°54'0 0.2 23.1
2014-Jul-25 17:00N 24°16' W 125°54'0 0.1 23.1
2014-Jul-25 14:00N 24°16' W 125°54'0 0.2 23.1
2014-Jul-25 13:00N 24°16' W 125°54'0 0.2 23.1
2014-Jul-25 12:00N 24°16' W 125°54'2 0.9 23.1
2014-Jul-25 10:00N 24°17' W 125°52'1 0.1 23.1
2014-Jul-25 05:00N 24°17' W 125°52'1 0.4 23.2
2014-Jul-25 02:00N 24°19' W 125°52'1 0.4 23.3
2014-Jul-25 00:00N 24°19' W 125°52'0 0.1 23.4
2014-Jul-24 21:00N 24°20' W 125°52'1 0.2 23.3
2014-Jul-24 14:00N 24°21' W 125°52'0 0.0 23.3
2014-Jul-24 13:00N 24°21' W 125°52'1 1.0 23.3
2014-Jul-24 12:00N 24°20' W 125°51'1 0.3 23.3
2014-Jul-24 10:00N 24°20' W 125°52'0 0.0 23.3
2014-Jul-24 09:00N 24°20' W 125°52'2 0.6 23.4
2014-Jul-24 06:00N 24°20' W 125°50'1 0.7 23.4
2014-Jul-24 05:00N 24°20' W 125°50'0 0.0 23.4
2014-Jul-24 03:00N 24°20' W 125°50'1 0.6 23.4
2014-Jul-24 02:00N 24°20' W 125°49'1 0.3 23.5
2014-Jul-24 00:00N 24°21' W 125°49'1 0.8 23.6
2014-Jul-23 23:00N 24°21' W 125°49'1 0.3 23.5
2014-Jul-23 21:00N 24°21' W 125°48'0 0.1 23.5
2014-Jul-23 13:00N 24°21' W 125°48'0 0.0 23.3
2014-Jul-23 12:00N 24°21' W 125°48'1 0.5 23.4
2014-Jul-23 10:00N 24°22' W 125°47'1 0.2 23.4
2014-Jul-23 05:00N 24°23' W 125°48'0 0.0 23.4
2014-Jul-23 04:00N 24°23' W 125°48'2 0.3 23.5
2014-Jul-22 23:00N 24°23' W 125°50'1 1.0 24.0
2014-Jul-22 22:00N 24°23' W 125°49'0 0.0 24.0
2014-Jul-22 21:00N 24°23' W 125°49'0 0.0 23.9
2014-Jul-22 18:00N 24°23' W 125°49'0 0.2 23.5
2014-Jul-22 17:00N 24°23' W 125°48'1 0.2 23.4
2014-Jul-22 13:00N 24°23' W 125°48'1 0.7 23.4
2014-Jul-22 11:00N 24°24' W 125°47'0 0.0 23.4
2014-Jul-22 09:00N 24°24' W 125°47'2 0.4 23.4
2014-Jul-22 05:00N 24°26' W 125°48'2 1.5 23.7
2014-Jul-22 04:00N 24°26' W 125°50'0 0.0 23.8
2014-Jul-22 02:00N 24°26' W 125°50'1 0.8 23.8
2014-Jul-22 01:00N 24°26' W 125°51'0 0.1 23.7
2014-Jul-21 22:00N 24°26' W 125°51'0 0.1 24.5
2014-Jul-21 18:00N 24°26' W 125°51'0 0.0 23.4
2014-Jul-21 17:00N 24°26' W 125°51'1 0.2 23.1
2014-Jul-21 12:00N 24°27' W 125°51'1 0.4 22.9
2014-Jul-21 10:00N 24°28' W 125°51'0 0.0 23.0
2014-Jul-21 09:00N 24°28' W 125°51'   23.1

Dump ship's entire track history